Time;durP1;ratioP1;P1;durP2;ratioP2;P2;SDS_P1;SDS_P2;PMS_P1;PMS_P2;Temp;Humidity;BMP_temperature;BMP_pressure;BME280_temperature;BME280_humidity;BME280_pressure;Samples;Min_cycle;Max_cycle;Signal;HPM_P1;HPM_P2
2022/11/29 00:01:28;;;;;;;;;;;;;;;28.21;46.32;97367.88;604601;234;64901;-65
2022/11/29 00:03:55;;;;;;;;;;;;;;;28.20;44.98;97377.06;604629;234;65088;-65
2022/11/29 00:06:26;;;;;;;;;;;;;;;28.19;44.41;97377.39;604556;234;67013;-65
2022/11/29 00:08:57;;;;;;;;;;;;;;;28.19;45.75;97371.98;604572;234;67130;-74
2022/11/29 00:14:13;;;;;;;;;;;;;;;28.17;45.21;97382.30;604568;234;65344;-75
2022/11/29 00:16:41;;;;;;;;;;;;;;;28.16;46.09;97375.31;604606;234;64970;-76
2022/11/29 00:19:09;;;;;;;;;;;;;;;28.16;45.02;97375.31;604560;234;62932;-75
2022/11/29 00:21:37;;;;;;;;;;;;;;;28.14;46.07;97377.52;604581;234;64895;-76
2022/11/29 00:24:04;;;;;;;;;;;;;;;28.13;46.15;97378.61;604557;234;65146;-75
2022/11/29 00:26:32;;;;;;;;;;;;;;;28.11;44.87;97371.62;604569;234;62992;-76
2022/11/29 00:28:59;;;;;;;;;;;;;;;28.12;45.99;97367.00;604557;234;67381;-75
2022/11/29 00:31:31;;;;;;;;;;;;;;;28.09;46.37;97368.42;604596;234;67063;-75
2022/11/29 00:33:59;;;;;;;;;;;;;;;28.08;46.96;97369.53;604561;234;65089;-75
2022/11/29 00:36:27;;;;;;;;;;;;;;;28.08;46.35;97364.13;604561;234;65046;-75
2022/11/29 00:38:55;;;;;;;;;;;;;;;28.07;45.35;97370.66;604550;234;65003;-75
2022/11/29 00:41:22;;;;;;;;;;;;;;;28.05;45.39;97370.16;604538;234;62897;-75
2022/11/29 00:43:50;;;;;;;;;;;;;;;28.06;47.15;97371.74;604610;234;64954;-75
2022/11/29 00:46:17;;;;;;;;;;;;;;;28.05;46.12;97374.77;604515;234;65064;-75
2022/11/29 00:48:45;;;;;;;;;;;;;;;28.04;46.42;97373.95;604563;234;62986;-75
2022/11/29 00:51:13;;;;;;;;;;;;;;;28.03;45.94;97377.77;604571;234;65100;-76
2022/11/29 00:53:40;;;;;;;;;;;;;;;28.03;46.47;97374.27;604597;234;66790;-74
2022/11/29 00:56:08;;;;;;;;;;;;;;;28.01;46.07;97366.47;604571;234;62857;-75
2022/11/29 00:58:36;;;;;;;;;;;;;;;28.01;46.09;97368.38;604577;234;67301;-75
2022/11/29 01:01:03;;;;;;;;;;;;;;;27.99;47.17;97360.59;604558;234;67271;-75
2022/11/29 01:03:31;;;;;;;;;;;;;;;28.00;45.84;97366.78;604539;234;62986;-75
2022/11/29 01:06:06;;;;;;;;;;;;;;;27.99;46.78;97362.47;604568;234;64932;-75
2022/11/29 01:08:34;;;;;;;;;;;;;;;27.98;47.17;97364.37;604576;234;67141;-74
2022/11/29 01:11:09;;;;;;;;;;;;;;;27.97;46.28;97367.41;604541;234;65300;-74
2022/11/29 01:13:37;;;;;;;;;;;;;;;27.96;46.14;97363.88;604563;234;67133;-74
2022/11/29 01:16:05;;;;;;;;;;;;;;;27.94;46.36;97366.12;604566;234;67001;-74
2022/11/29 01:18:33;;;;;;;;;;;;;;;27.93;45.81;97364.50;604566;234;65027;-74
2022/11/29 01:21:02;;;;;;;;;;;;;;;27.92;45.89;97362.92;604562;234;66966;-74
2022/11/29 01:23:30;;;;;;;;;;;;;;;27.92;45.98;97362.92;604129;234;67220;-75
2022/11/29 01:25:58;;;;;;;;;;;;;;;27.91;45.77;97361.34;604524;234;65145;-74
2022/11/29 01:28:27;;;;;;;;;;;;;;;27.90;45.19;97359.72;604568;234;67514;-75
2022/11/29 01:30:54;;;;;;;;;;;;;;;27.89;47.23;97364.33;604580;234;64960;-76
2022/11/29 01:33:22;;;;;;;;;;;;;;;27.88;45.46;97370.03;604569;234;65062;-75
2022/11/29 01:35:50;;;;;;;;;;;;;;;27.88;46.86;97351.94;604604;234;68428;-75
2022/11/29 01:38:18;;;;;;;;;;;;;;;27.87;45.83;97363.05;604560;234;67025;-76
2022/11/29 01:40:47;;;;;;;;;;;;;;;27.87;45.82;97357.64;604539;234;65057;-75
2022/11/29 01:43:16;;;;;;;;;;;;;;;27.85;47.63;97365.24;604174;234;67235;-75
2022/11/29 01:45:44;;;;;;;;;;;;;;;27.83;46.33;97353.97;604559;234;66832;-76
2022/11/29 01:48:13;;;;;;;;;;;;;;;27.82;47.47;97363.16;604518;234;62910;-75
2022/11/29 01:50:41;;;;;;;;;;;;;;;27.81;45.77;97364.28;604519;234;67248;-76
2022/11/29 01:53:12;;;;;;;;;;;;;;;27.80;45.15;97360.78;604612;234;46813;-75
2022/11/29 01:55:41;;;;;;;;;;;;;;;27.81;42.37;97358.88;604563;234;62772;-75
2022/11/29 01:58:09;;;;;;;;;;;;;;;27.80;46.61;97354.56;604553;234;67274;-75
2022/11/29 02:00:37;;;;;;;;;;;;;;;27.77;45.17;97357.84;604560;234;67247;-76
2022/11/29 02:03:06;;;;;;;;;;;;;;;27.77;45.06;97364.05;604590;234;64957;-75
2022/11/29 02:05:33;;;;;;;;;;;;;;;27.76;45.87;97361.67;604434;234;65971;-75
2022/11/29 02:08:01;;;;;;;;;;;;;;;27.75;47.07;97365.48;604570;234;66932;-75
2022/11/29 02:10:31;;;;;;;;;;;;;;;27.73;45.06;97365.77;604530;234;62927;-75
2022/11/29 02:13:03;;;;;;;;;;;;;;;27.73;46.80;97356.88;603522;234;67268;-75
2022/11/29 02:15:34;;;;;;;;;;;;;;;27.72;47.41;97364.19;604153;234;65255;-75
2022/11/29 02:18:06;;;;;;;;;;;;;;;27.73;46.06;97367.69;604329;234;63090;-75
2022/11/29 02:20:36;;;;;;;;;;;;;;;27.70;46.90;97360.99;604531;234;67242;-75
2022/11/29 02:23:14;;;;;;;;;;;;;;;27.68;46.97;97363.98;604580;234;67006;-75
2022/11/29 02:25:43;;;;;;;;;;;;;;;27.68;46.27;97361.28;603456;234;62927;-74
2022/11/29 02:28:15;;;;;;;;;;;;;;;27.67;45.01;97364.31;604163;234;65290;-75
2022/11/29 02:30:59;;;;;;;;;;;;;;;27.65;44.84;97361.91;603846;234;67048;-74
2022/11/29 02:33:40;;;;;;;;;;;;;;;27.65;44.54;97369.21;604650;234;62985;-75
2022/11/29 02:36:09;;;;;;;;;;;;;;;27.64;46.05;97373.81;604053;234;66775;-74
2022/11/29 02:38:39;;;;;;;;;;;;;;;27.65;43.64;97374.61;604592;234;65106;-75
2022/11/29 02:41:14;;;;;;;;;;;;;;;27.64;44.92;97371.12;604542;234;62928;-75
2022/11/29 02:43:59;;;;;;;;;;;;;;;27.62;47.38;97376.02;604598;234;67516;-75
2022/11/29 02:46:28;;;;;;;;;;;;;;;27.61;44.62;97381.70;604388;234;67041;-75
2022/11/29 02:49:09;;;;;;;;;;;;;;;27.60;44.82;97374.73;602835;235;65038;-75
2022/11/29 02:51:41;;;;;;;;;;;;;;;27.58;46.45;97372.34;603041;235;67223;-75
2022/11/29 02:54:27;;;;;;;;;;;;;;;27.57;46.28;97370.73;603310;235;67635;-74
2022/11/29 02:56:59;;;;;;;;;;;;;;;27.56;45.28;97381.85;603262;235;63171;-65
2022/11/29 02:59:28;;;;;;;;;;;;;;;27.54;45.56;97373.25;602302;235;67235;-65
2022/11/29 03:02:00;;;;;;;;;;;;;;;27.53;44.47;97368.94;602163;235;67033;-65
2022/11/29 03:04:29;;;;;;;;;;;;;;;27.51;44.99;97371.96;603159;235;62988;-65
2022/11/29 03:07:13;;;;;;;;;;;;;;;27.51;44.24;97371.96;603191;235;67261;-65
2022/11/29 03:09:45;;;;;;;;;;;;;;;27.50;45.76;97367.67;603287;235;66994;-65
2022/11/29 03:12:17;;;;;;;;;;;;;;;27.49;45.81;97367.97;602290;235;65170;-75
2022/11/29 03:14:47;;;;;;;;;;;;;;;27.48;47.56;97369.08;603282;235;64914;-74
2022/11/29 03:17:18;;;;;;;;;;;;;;;27.45;46.14;97368.58;603317;235;67062;-74
2022/11/29 03:19:57;;;;;;;;;;;;;;;27.46;43.05;97369.38;603018;235;63713;-74
2022/11/29 03:22:44;;;;;;;;;;;;;;;27.46;45.23;97369.38;600490;235;67187;-75
2022/11/29 03:25:31;;;;;;;;;;;;;;;27.44;45.47;97372.36;603320;235;64734;-75
2022/11/29 03:28:00;;;;;;;;;;;;;;;27.44;46.54;97371.57;594975;238;65248;-75
2022/11/29 03:30:29;;;;;;;;;;;;;;;27.43;43.45;97372.69;594881;238;67297;-74
2022/11/29 03:33:14;;;;;;;;;;;;;;;27.41;43.29;97366.78;597905;235;65333;-75
2022/11/29 03:35:46;;;;;;;;;;;;;;;27.39;43.11;97369.81;603310;235;63159;-75
2022/11/29 03:38:21;;;;;;;;;;;;;;;27.39;43.11;97368.98;603297;235;67309;-75
2022/11/29 03:40:53;;;;;;;;;;;;;;;27.38;45.08;97372.80;603007;235;67178;-74
2022/11/29 03:43:22;;;;;;;;;;;;;;;27.37;45.59;97358.52;603170;235;65294;-75
2022/11/29 03:45:57;;;;;;;;;;;;;;;27.37;44.87;97361.20;603128;235;67295;-75
2022/11/29 03:48:26;;;;;;;;;;;;;;;27.37;42.70;97363.11;603224;235;66803;-75
2022/11/29 03:50:55;;;;;;;;;;;;;;;27.35;41.74;97360.70;603150;235;65061;-75
2022/11/29 03:53:39;;;;;;;;;;;;;;;27.35;43.87;97363.41;603361;235;66800;-75
2022/11/29 03:56:26;;;;;;;;;;;;;;;27.34;45.45;97367.22;603224;235;66809;-65
2022/11/29 03:58:55;;;;;;;;;;;;;;;27.33;43.46;97360.20;603248;235;65319;-65
2022/11/29 04:01:41;;;;;;;;;;;;;;;27.33;46.17;97365.60;603283;235;65116;-65
2022/11/29 04:04:22;;;;;;;;;;;;;;;27.31;40.97;97367.83;603319;235;67006;-65
2022/11/29 04:06:54;;;;;;;;;;;;;;;27.30;45.30;97370.81;602689;235;63113;-65
2022/11/29 04:09:26;;;;;;;;;;;;;;;27.30;45.90;97373.52;603294;235;67116;-65
2022/11/29 04:12:11;;;;;;;;;;;;;;;27.29;43.10;97369.23;603192;235;66882;-65
2022/11/29 04:14:43;;;;;;;;;;;;;;;27.27;43.24;97366.03;603348;235;65216;-66
2022/11/29 04:17:21;;;;;;;;;;;;;;;27.26;44.41;97367.94;602841;235;65178;-66
2022/11/29 04:19:59;;;;;;;;;;;;;;;27.26;46.83;97383.33;603298;235;67066;-66
2022/11/29 04:22:34;;;;;;;;;;;;;;;27.23;44.04;97382.83;600413;235;65350;-66
2022/11/29 04:25:05;;;;;;;;;;;;;;;27.23;44.89;97392.83;602798;235;47942;-66
2022/11/29 04:27:40;;;;;;;;;;;;;;;27.21;44.88;97376.93;603199;235;67057;-66
2022/11/29 04:30:12;;;;;;;;;;;;;;;27.21;46.47;97382.33;599096;235;65304;-66
2022/11/29 04:32:56;;;;;;;;;;;;;;;27.19;41.98;97386.42;598652;237;64113;-66
2022/11/29 04:35:34;;;;;;;;;;;;;;;27.20;43.32;97390.71;598570;237;67034;-65
2022/11/29 04:38:07;;;;;;;;;;;;;;;27.19;46.07;97391.83;598922;237;63149;-65
2022/11/29 04:40:42;;;;;;;;;;;;;;;27.17;45.48;97389.45;598931;237;64835;-65
2022/11/29 04:43:13;;;;;;;;;;;;;;;27.17;44.41;97396.72;598942;237;66816;-65
2022/11/29 04:45:42;;;;;;;;;;;;;;;27.17;47.25;97388.63;598564;237;64984;-65
2022/11/29 04:48:24;;;;;;;;;;;;;;;27.16;46.70;97393.22;599335;236;67265;-65
2022/11/29 04:50:56;;;;;;;;;;;;;;;27.14;44.82;97386.50;598638;236;65358;-65
2022/11/29 04:53:25;;;;;;;;;;;;;;;27.15;46.95;97388.91;599258;236;65236;-65
2022/11/29 04:56:00;;;;;;;;;;;;;;;27.15;49.36;97397.00;599760;236;67252;-65
2022/11/29 04:58:29;;;;;;;;;;;;;;;27.15;44.85;97401.61;599499;236;67011;-65
2022/11/29 05:00:59;;;;;;;;;;;;;;;27.15;44.79;97402.40;599531;236;63063;-65
2022/11/29 05:03:28;;;;;;;;;;;;;;;27.16;46.82;97397.80;599755;236;64953;-65
2022/11/29 05:06:06;;;;;;;;;;;;;;;27.16;47.79;97400.50;599557;236;66930;-65
2022/11/29 05:08:44;;;;;;;;;;;;;;;27.16;45.31;97401.31;599697;236;65153;-65
2022/11/29 05:11:16;;;;;;;;;;;;;;;27.17;45.76;97394.84;599639;236;64509;-65
2022/11/29 05:13:51;;;;;;;;;;;;;;;27.18;46.58;97401.03;599778;236;64558;-64
2022/11/29 05:16:37;;;;;;;;;;;;;;;27.18;47.31;97407.22;599591;236;65134;-65
2022/11/29 05:19:06;;;;;;;;;;;;;;;27.18;46.27;97399.12;599776;236;67315;-65
2022/11/29 05:21:38;;;;;;;;;;;;;;;27.21;47.08;97405.81;599812;236;66995;-75
2022/11/29 05:24:16;;;;;;;;;;;;;;;27.21;48.55;97403.91;599549;236;62928;-75
2022/11/29 05:26:46;;;;;;;;;;;;;;;27.22;47.57;97413.59;594613;236;67023;-74
2022/11/29 05:29:15;;;;;;;;;;;;;;;27.23;47.53;97409.81;598413;236;66791;-75
2022/11/29 05:31:50;;;;;;;;;;;;;;;27.22;47.68;97402.80;597807;236;65073;-74
2022/11/29 05:34:28;;;;;;;;;;;;;;;27.25;48.64;97406.00;599618;236;65487;-75
2022/11/29 05:37:10;;;;;;;;;;;;;;;27.26;47.22;97405.71;599799;236;66823;-74
2022/11/29 05:39:39;;;;;;;;;;;;;;;27.29;48.30;97415.11;599809;236;65295;-74
2022/11/29 05:42:08;;;;;;;;;;;;;;;27.28;46.98;97414.28;599630;236;64667;-75
2022/11/29 05:44:43;;;;;;;;;;;;;;;27.30;48.01;97409.39;597809;236;64675;-74
2022/11/29 05:47:12;;;;;;;;;;;;;;;27.32;48.20;97412.59;598781;236;62919;-74
2022/11/29 05:49:41;;;;;;;;;;;;;;;27.33;46.59;97413.38;598152;237;65534;-74
2022/11/29 05:52:25;;;;;;;;;;;;;;;27.34;46.83;97415.80;598320;237;66785;-75
2022/11/29 05:55:01;;;;;;;;;;;;;;;27.37;48.38;97417.09;598344;237;64974;-74
2022/11/29 05:57:45;;;;;;;;;;;;;;;27.38;46.91;97422.16;598320;237;66969;-74
2022/11/29 06:00:15;;;;;;;;;;;;;;;27.39;48.13;97412.98;582628;240;66508;-74
2022/11/29 06:02:50;;;;;;;;;;;;;;;27.41;44.06;97418.06;593479;237;63315;-75
2022/11/29 06:05:35;;;;;;;;;;;;;;;27.44;46.74;97425.55;598214;237;65689;-74
2022/11/29 06:08:14;;;;;;;;;;;;;;;27.45;46.77;97421.77;598294;237;64893;-74
2022/11/29 06:10:43;;;;;;;;;;;;;;;27.48;47.65;97428.47;598328;237;63056;-74
2022/11/29 06:13:20;;;;;;;;;;;;;;;27.48;48.19;97421.16;597915;237;64750;-74
2022/11/29 06:16:04;;;;;;;;;;;;;;;27.50;42.21;97420.84;597934;237;66879;-74
2022/11/29 06:18:39;;;;;;;;;;;;;;;27.53;43.53;97422.92;597932;237;65254;-74
2022/11/29 06:21:15;;;;;;;;;;;;;;;27.54;45.73;97425.34;598305;237;64762;-75
2022/11/29 06:23:53;;;;;;;;;;;;;;;27.57;45.62;97419.33;598338;237;64856;-74
2022/11/29 06:26:33;;;;;;;;;;;;;;;27.60;45.73;97418.72;598182;237;62996;-74
2022/11/29 06:29:18;;;;;;;;;;;;;;;27.62;47.38;97423.83;598357;237;66788;-75
2022/11/29 06:31:47;;;;;;;;;;;;;;;27.65;41.45;97415.91;598336;237;66939;-74
2022/11/29 06:34:25;;;;;;;;;;;;;;;27.68;45.27;97420.69;598007;237;63105;-74
2022/11/29 06:37:01;;;;;;;;;;;;;;;27.70;41.78;97423.09;598236;237;65077;-75
2022/11/29 06:39:30;;;;;;;;;;;;;;;27.74;41.95;97421.37;595950;237;65241;-74
2022/11/29 06:41:58;;;;;;;;;;;;;;;27.77;41.27;97420.75;598277;237;63016;-75
2022/11/29 06:44:25;;;;;;;;;;;;;;;27.78;46.01;97419.67;598251;237;64741;-75
2022/11/29 06:46:54;;;;;;;;;;;;;;;27.80;41.41;97424.78;598658;236;66841;-75
2022/11/29 06:49:29;;;;;;;;;;;;;;;27.84;41.05;97423.08;599531;236;62684;-75
2022/11/29 06:52:05;;;;;;;;;;;;;;;27.86;43.17;97418.17;599799;236;67125;-74
2022/11/29 06:54:46;;;;;;;;;;;;;;;27.87;44.49;97427.86;599730;236;66714;-75
2022/11/29 06:57:15;;;;;;;;;;;;;;;27.75;39.43;97419.49;599761;236;65035;-74
2022/11/29 06:59:47;;;;;;;;;;;;;;;27.80;46.95;97427.48;597844;236;64729;-72
2022/11/29 07:02:19;;;;;;;;;;;;;;;27.78;47.15;97427.77;599076;236;66779;-75
2022/11/29 07:05:05;;;;;;;;;;;;;;;27.79;43.06;97429.36;604380;233;65083;-74
2022/11/29 07:07:34;;;;;;;;;;;;;;;27.82;42.99;97423.38;604375;233;66813;-74
2022/11/29 07:10:02;;;;;;;;;;;;;;;27.86;41.76;97426.28;606262;234;66717;-74
2022/11/29 07:12:30;;;;;;;;;;;;;;;27.89;41.24;97431.06;606271;234;65362;-70
2022/11/29 07:14:58;;;;;;;;;;;;;;;27.92;46.19;97426.95;606355;234;66986;-67
2022/11/29 07:17:27;;;;;;;;;;;;;;;27.91;41.35;97428.86;606419;234;66525;-68
2022/11/29 07:20:06;;;;;;;;;;;;;;;27.96;43.42;97428.72;606387;234;63036;-74
2022/11/29 07:22:42;;;;;;;;;;;;;;;27.94;46.73;97424.72;606395;234;66963;-73
2022/11/29 07:25:17;;;;;;;;;;;;;;;27.91;47.72;97426.16;606385;234;67084;-74
2022/11/29 07:28:02;;;;;;;;;;;;;;;27.89;46.54;97423.75;606393;234;65184;-74
2022/11/29 07:30:35;;;;;;;;;;;;;;;27.89;45.93;97425.66;606345;234;66970;-74
2022/11/29 07:33:03;;;;;;;;;;;;;;;27.88;45.57;97432.15;601599;234;64853;-73
2022/11/29 07:35:42;;;;;;;;;;;;;;;27.87;45.07;97423.25;606252;234;62985;-74
2022/11/29 07:38:20;;;;;;;;;;;;;;;27.88;43.12;97429.45;606302;234;67021;-73
2022/11/29 07:41:01;;;;;;;;;;;;;;;27.87;44.53;97422.46;606424;234;66853;-75
2022/11/29 07:43:42;;;;;;;;;;;;;;;27.88;43.99;97432.97;606392;234;63062;-74
2022/11/29 07:46:10;;;;;;;;;;;;;;;27.88;46.78;97430.27;606027;234;66577;-74
2022/11/29 07:48:37;;;;;;;;;;;;;;;27.87;47.12;97428.66;604445;234;66781;-73
2022/11/29 07:51:06;;;;;;;;;;;;;;;27.88;47.17;97429.45;604473;234;65032;-71
2022/11/29 07:53:36;;;;;;;;;;;;;;;27.87;46.35;97428.66;604491;234;65890;-72
2022/11/29 07:56:03;;;;;;;;;;;;;;;27.89;46.13;97431.86;604389;234;64769;-73
2022/11/29 07:58:31;;;;;;;;;;;;;;;27.92;45.62;97430.45;604419;234;63020;-73
2022/11/29 08:00:58;;;;;;;;;;;;;;;27.92;45.01;97433.15;604443;234;66944;-68
2022/11/29 08:03:26;;;;;;;;;;;;;;;27.93;44.68;97426.63;604436;234;64631;-74
2022/11/29 08:05:55;;;;;;;;;;;;;;;27.95;45.16;97432.53;604355;234;42955;-74
2022/11/29 08:08:22;;;;;;;;;;;;;;;27.95;43.40;97435.23;604442;234;66748;-73
2022/11/29 08:10:50;;;;;;;;;;;;;;;27.95;45.79;97435.23;604397;234;66689;-75
2022/11/29 08:13:20;;;;;;;;;;;;;;;27.96;44.61;97439.52;604177;234;65426;-72
2022/11/29 08:15:48;;;;;;;;;;;;;;;27.96;45.14;97431.42;601756;234;64469;-73
2022/11/29 08:18:16;;;;;;;;;;;;;;;27.96;45.08;97436.82;597304;237;64348;-73
2022/11/29 08:20:45;;;;;;;;;;;;;;;27.97;47.19;97438.44;597523;237;65189;-74
2022/11/29 08:23:14;;;;;;;;;;;;;;;27.96;44.82;97434.13;598253;237;66760;-74
2022/11/29 08:25:41;;;;;;;;;;;;;;;28.00;44.38;97442.43;598261;237;66586;-74
2022/11/29 08:28:09;;;;;;;;;;;;;;;28.00;41.77;97437.03;598152;237;65131;-74
2022/11/29 08:30:38;;;;;;;;;;;;;;;27.99;43.58;97430.01;600155;234;47693;-74
2022/11/29 08:33:06;;;;;;;;;;;;;;;27.98;46.82;97440.02;599216;234;66553;-75
2022/11/29 08:35:34;;;;;;;;;;;;;;;27.98;45.18;97431.91;598032;237;65065;-72
2022/11/29 08:38:03;;;;;;;;;;;;;;;27.96;42.99;97423.31;598693;235;66958;-72
2022/11/29 08:40:31;;;;;;;;;;;;;;;28.01;44.67;97433.20;598151;237;67205;-74
2022/11/29 08:42:58;;;;;;;;;;;;;;;28.02;46.17;97423.98;598104;237;66334;-73
2022/11/29 08:45:26;;;;;;;;;;;;;;;28.01;46.30;97431.30;598210;237;66901;-73
2022/11/29 08:47:53;;;;;;;;;;;;;;;28.01;45.56;97428.59;598192;237;66855;-69
2022/11/29 08:50:21;;;;;;;;;;;;;;;28.03;44.94;97439.91;598167;237;65143;-68
2022/11/29 08:55:35;;;;;;;;;;;;;;;28.04;44.53;97422.58;598202;237;66667;-75
2022/11/29 08:58:04;;;;;;;;;;;;;;;28.05;43.85;97426.89;598275;237;62719;-75
2022/11/29 09:00:32;;;;;;;;;;;;;;;28.06;45.00;97425.78;598264;237;66437;-76
2022/11/29 09:05:46;;;;;;;;;;;;;;;28.03;47.34;97434.50;598058;237;65287;-73
2022/11/29 09:08:14;;;;;;;;;;;;;;;28.03;44.64;97425.60;598190;237;67360;-66
2022/11/29 09:10:43;;;;;;;;;;;;;;;28.05;42.94;97418.00;598037;237;64616;-73
2022/11/29 09:13:11;;;;;;;;;;;;;;;28.09;42.60;97419.75;598266;237;62811;-73
2022/11/29 09:15:40;;;;;;;;;;;;;;;28.10;46.13;97415.14;598294;237;64764;-72
2022/11/29 09:18:08;;;;;;;;;;;;;;;28.12;44.74;97415.64;598122;237;66930;-72
2022/11/29 09:20:37;;;;;;;;;;;;;;;28.16;47.91;97421.25;598149;237;65080;-74
2022/11/29 09:23:04;;;;;;;;;;;;;;;28.17;43.83;97417.43;598249;237;67381;-74
2022/11/29 09:25:32;;;;;;;;;;;;;;;28.20;42.63;97408.70;598168;237;67166;-73
2022/11/29 09:28:04;;;;;;;;;;;;;;;28.22;45.47;97401.09;598289;237;65069;-72
2022/11/29 09:30:30;;;;;;;;;;;;;;;28.22;46.79;97395.69;597888;237;67322;-74
2022/11/29 09:33:04;;;;;;;;;;;;;;;28.23;42.43;97391.86;598158;237;64955;-70
2022/11/29 09:35:32;;;;;;;;;;;;;;;28.24;42.18;97391.57;598238;237;62749;-73
2022/11/29 09:37:59;;;;;;;;;;;;;;;28.27;42.45;97388.24;598259;237;65153;-72
2022/11/29 09:40:44;;;;;;;;;;;;;;;28.28;44.23;97383.63;598189;237;64996;-71
2022/11/29 09:43:22;;;;;;;;;;;;;;;28.29;42.55;97390.62;598032;237;64907;-73
2022/11/29 09:45:51;;;;;;;;;;;;;;;28.30;42.79;97381.42;598135;237;64883;-73
2022/11/29 09:48:20;;;;;;;;;;;;;;;28.30;36.71;97378.72;599299;236;64805;-73
2022/11/29 09:50:49;;;;;;;;;;;;;;;28.36;40.44;97380.17;599726;236;63057;-72
2022/11/29 09:53:25;;;;;;;;;;;;;;;28.38;40.40;97377.17;599609;236;65171;-73
2022/11/29 09:55:59;;;;;;;;;;;;;;;28.40;41.04;97381.16;599675;236;65386;-66
2022/11/29 09:58:25;;;;;;;;;;;;;;;28.42;39.89;97378.92;599455;236;63297;-66
2022/11/29 10:00:55;;;;;;;;;;;;;;;28.44;42.23;97376.75;599516;236;64724;-66
2022/11/29 10:03:24;;;;;;;;;;;;;;;28.43;42.63;97372.46;599406;236;66970;-65
2022/11/29 10:06:05;;;;;;;;;;;;;;;28.42;42.59;97370.02;599703;236;65045;-68
2022/11/29 10:08:40;;;;;;;;;;;;;;;28.40;42.08;97364.95;599415;236;64941;-64
2022/11/29 10:11:16;;;;;;;;;;;;;;;28.37;37.84;97354.73;599577;236;64918;-66
2022/11/29 10:13:44;;;;;;;;;;;;;;;28.37;43.50;97352.03;599658;236;62986;-66
2022/11/29 10:16:18;;;;;;;;;;;;;;;28.36;43.75;97345.03;599611;236;67092;-66
2022/11/29 10:18:48;;;;;;;;;;;;;;;28.36;46.40;97353.14;599692;236;65150;-66
2022/11/29 10:21:20;;;;;;;;;;;;;;;28.38;43.69;97352.84;599639;236;62836;-66
2022/11/29 10:23:58;;;;;;;;;;;;;;;28.38;41.37;97337.42;599505;236;65322;-65
2022/11/29 10:26:25;;;;;;;;;;;;;;;28.41;41.86;97350.31;599657;236;64978;-65
2022/11/29 10:28:56;;;;;;;;;;;;;;;28.42;41.08;97343.78;601911;233;65042;-64
2022/11/29 10:31:29;;;;;;;;;;;;;;;28.44;40.62;97344.30;606150;233;67242;-66
2022/11/29 10:33:58;;;;;;;;;;;;;;;28.45;42.01;97343.19;602554;233;70112;-66
2022/11/29 10:36:45;;;;;;;;;;;;;;;28.46;44.25;97341.30;603900;233;62765;-66
2022/11/29 10:39:35;;;;;;;;;;;;;;;28.45;44.28;97342.39;599676;236;67262;-66
2022/11/29 10:42:05;;;;;;;;;;;;;;;28.44;43.98;97336.20;601573;233;67016;-65
2022/11/29 10:44:33;;;;;;;;;;;;;;;28.44;42.42;97338.90;599566;236;65131;-65
2022/11/29 10:49:39;;;;;;;;;;;;;;;28.45;43.95;97332.38;602243;235;37596;-64
2022/11/29 10:52:08;;;;;;;;;;;;;;;28.46;44.01;97328.58;602119;235;62786;-65
2022/11/29 10:54:40;;;;;;;;;;;;;;;28.49;44.37;97335.27;601722;235;67398;-65
2022/11/29 10:57:09;;;;;;;;;;;;;;;28.49;43.65;97336.06;595236;238;67241;-66
2022/11/29 10:59:37;;;;;;;;;;;;;;;28.51;44.32;97327.63;595540;237;65254;-66
2022/11/29 11:02:06;;;;;;;;;;;;;;;28.51;42.46;97333.84;595499;238;67314;-66
2022/11/29 11:04:35;;;;;;;;;;;;;;;28.52;41.56;97334.64;595150;238;64659;-66
2022/11/29 11:07:03;;;;;;;;;;;;;;;28.53;42.85;97328.91;595629;238;65085;-65
2022/11/29 11:09:36;;;;;;;;;;;;;;;28.54;42.68;97330.52;594738;238;67239;-65
2022/11/29 11:12:08;;;;;;;;;;;;;;;28.55;42.25;97331.31;595535;238;67418;-65
2022/11/29 11:14:39;;;;;;;;;;;;;;;28.57;43.64;97331.02;595143;238;63028;-66
2022/11/29 11:17:26;;;;;;;;;;;;;;;28.49;42.49;97327.16;595662;238;67379;-66
2022/11/29 11:20:03;;;;;;;;;;;;;;;28.59;44.09;97336.88;595513;238;65016;-65
2022/11/29 11:22:32;;;;;;;;;;;;;;;28.60;42.44;97335.79;594679;238;65362;-66
2022/11/29 11:25:00;;;;;;;;;;;;;;;28.60;43.42;97333.87;595588;238;65177;-75
2022/11/29 11:27:29;;;;;;;;;;;;;;;28.62;44.21;97334.36;595543;238;67133;-75
2022/11/29 11:29:57;;;;;;;;;;;;;;;28.62;42.66;97330.84;595619;238;65081;-75
2022/11/29 11:32:25;;;;;;;;;;;;;;;28.62;45.44;97328.14;595609;238;67132;-75
2022/11/29 11:34:57;;;;;;;;;;;;;;;28.64;43.91;97336.73;595567;238;67099;-74
2022/11/29 11:37:26;;;;;;;;;;;;;;;28.64;42.46;97328.63;595586;238;63574;-72
2022/11/29 11:39:55;;;;;;;;;;;;;;;28.65;41.52;97330.23;595502;238;65253;-75
2022/11/29 11:42:36;;;;;;;;;;;;;;;28.65;44.63;97328.33;603865;234;67026;-73
2022/11/29 11:45:05;;;;;;;;;;;;;;;28.66;42.81;97329.12;604912;234;65192;-73
2022/11/29 11:47:34;;;;;;;;;;;;;;;28.68;44.23;97332.31;604987;234;64945;-75
2022/11/29 11:50:05;;;;;;;;;;;;;;;28.67;43.79;97322.59;606359;234;67030;-74
2022/11/29 11:52:40;;;;;;;;;;;;;;;28.68;44.81;97321.50;606361;234;65268;-74
2022/11/29 11:55:26;;;;;;;;;;;;;;;28.68;46.78;97329.61;606388;234;67267;-75
2022/11/29 11:58:14;;;;;;;;;;;;;;;28.69;41.28;97323.08;606454;234;66893;-73
2022/11/29 12:00:50;;;;;;;;;;;;;;;28.70;43.08;97325.48;606357;234;65269;-72
2022/11/29 12:03:34;;;;;;;;;;;;;;;28.71;43.28;97323.56;606303;234;68058;-72
2022/11/29 12:06:03;;;;;;;;;;;;;;;28.73;42.50;97324.85;606388;234;64809;-73
2022/11/29 12:08:31;;;;;;;;;;;;;;;28.74;42.96;97320.23;606144;234;63250;-74
2022/11/29 12:11:03;;;;;;;;;;;;;;;28.74;43.14;97323.73;606330;234;65150;-74
2022/11/29 12:13:32;;;;;;;;;;;;;;;28.75;43.08;97322.61;606395;234;67610;-77
2022/11/29 12:16:01;;;;;;;;;;;;;;;28.76;42.04;97324.22;606375;234;62980;-74
2022/11/29 12:18:30;;;;;;;;;;;;;;;28.77;43.50;97317.69;606376;234;64785;-69
2022/11/29 12:21:02;;;;;;;;;;;;;;;28.79;45.03;97316.59;605301;234;64447;-75
2022/11/29 12:23:31;;;;;;;;;;;;;;;28.78;41.54;97313.06;605605;234;64975;-74
2022/11/29 12:26:00;;;;;;;;;;;;;;;28.81;44.20;97315.17;606393;234;66748;-75
2022/11/29 12:28:30;;;;;;;;;;;;;;;28.82;41.81;97314.05;606388;234;67202;-74
2022/11/29 12:31:04;;;;;;;;;;;;;;;28.84;41.96;97314.53;606332;234;65082;-75
2022/11/29 12:33:39;;;;;;;;;;;;;;;28.87;42.58;97318.52;605922;234;64886;-74
2022/11/29 12:36:08;;;;;;;;;;;;;;;28.88;42.03;97310.08;606053;234;66944;-75
2022/11/29 12:38:42;;;;;;;;;;;;;;;28.89;40.92;97322.50;606415;233;46459;-74
2022/11/29 12:41:23;;;;;;;;;;;;;;;28.91;38.56;97324.88;606355;234;64344;-75
2022/11/29 12:43:55;;;;;;;;;;;;;;;28.91;41.09;97322.17;606132;234;67027;-74
2022/11/29 12:46:24;;;;;;;;;;;;;;;28.93;42.58;97323.45;606055;234;62904;-73
2022/11/29 12:49:00;;;;;;;;;;;;;;;28.92;42.84;97319.16;603530;234;66904;-73
2022/11/29 12:51:29;;;;;;;;;;;;;;;28.92;42.01;97329.98;602251;235;66923;-74
2022/11/29 12:54:14;;;;;;;;;;;;;;;28.95;43.28;97333.97;602120;235;65080;-74
2022/11/29 12:56:43;;;;;;;;;;;;;;;28.95;40.78;97328.56;602269;235;65347;-73
2022/11/29 12:59:12;;;;;;;;;;;;;;;28.95;42.94;97326.64;602219;235;64910;-75
2022/11/29 13:01:48;;;;;;;;;;;;;;;28.95;43.40;97326.64;602299;235;63005;-75
2022/11/29 13:04:23;;;;;;;;;;;;;;;28.96;43.50;97322.81;602293;235;67291;-74
2022/11/29 13:07:01;;;;;;;;;;;;;;;28.97;40.58;97321.72;602233;235;66942;-75
2022/11/29 13:09:43;;;;;;;;;;;;;;;28.98;42.50;97323.30;601436;235;65163;-73
2022/11/29 13:12:15;;;;;;;;;;;;;;;28.98;41.58;97326.02;602273;235;64597;-73
2022/11/29 13:14:50;;;;;;;;;;;;;;;28.98;43.63;97319.81;602250;235;65045;-72
2022/11/29 13:17:28;;;;;;;;;;;;;;;28.97;43.39;97319.02;602174;235;63036;-73
2022/11/29 13:19:57;;;;;;;;;;;;;;;28.98;43.65;97326.02;602212;235;65154;-73
2022/11/29 13:22:42;;;;;;;;;;;;;;;28.98;43.16;97326.02;602325;235;64944;-75
2022/11/29 13:25:17;;;;;;;;;;;;;;;29.01;42.82;97321.09;602304;235;65277;-74